createdAt,value
2019-05-18T00:01:27.723Z,55.60
2019-05-18T00:03:32.471Z,55.50
2019-05-18T00:05:37.237Z,55.60
2019-05-18T00:07:42.005Z,55.70
2019-05-18T00:09:46.755Z,55.70
2019-05-18T00:11:51.549Z,55.70
2019-05-18T00:13:56.222Z,55.70
2019-05-18T00:16:00.979Z,55.80
2019-05-18T00:18:05.765Z,55.80
2019-05-18T00:20:11.482Z,55.90
2019-05-18T00:22:16.259Z,55.90
2019-05-18T00:24:20.999Z,55.90
2019-05-18T00:26:25.679Z,55.90
2019-05-18T00:28:31.997Z,56.00
2019-05-18T00:30:36.744Z,55.90
2019-05-18T00:32:41.501Z,55.90
2019-05-18T00:34:46.291Z,55.90
2019-05-18T00:36:51.294Z,55.90
2019-05-18T00:38:55.986Z,55.90
2019-05-18T00:41:00.741Z,55.90
2019-05-18T00:43:05.442Z,56.00
2019-05-18T00:45:10.226Z,55.90
2019-05-18T00:47:14.994Z,56.00
2019-05-18T00:49:19.734Z,56.00
2019-05-18T00:51:24.423Z,56.00
2019-05-18T00:53:30.019Z,56.00
2019-05-18T00:55:34.722Z,56.10
2019-05-18T00:57:39.500Z,56.00
2019-05-18T00:59:44.254Z,56.00
2019-05-18T01:01:49.035Z,56.10
2019-05-18T01:03:53.776Z,56.20
2019-05-18T01:05:58.539Z,56.10
2019-05-18T01:08:03.381Z,56.20
2019-05-18T01:10:08.185Z,56.20
2019-05-18T01:12:13.010Z,56.20
2019-05-18T01:14:17.961Z,56.30
2019-05-18T01:16:22.769Z,56.30
2019-05-18T01:18:28.643Z,56.40
2019-05-18T01:20:33.402Z,56.30
2019-05-18T01:22:38.155Z,56.30
2019-05-18T01:24:44.068Z,56.30
2019-05-18T01:26:48.871Z,56.40
2019-05-18T01:28:57.225Z,56.40
2019-05-18T01:31:02.006Z,56.50
2019-05-18T01:33:06.756Z,56.60
2019-05-18T01:35:11.776Z,56.60
2019-05-18T01:37:17.269Z,56.60
2019-05-18T01:39:22.070Z,56.60
2019-05-18T01:41:26.811Z,56.70
2019-05-18T01:43:31.582Z,56.70
2019-05-18T01:45:36.238Z,56.70
2019-05-18T01:47:41.993Z,56.60
2019-05-18T01:49:46.748Z,56.70
2019-05-18T01:51:51.499Z,56.80
2019-05-18T01:53:56.226Z,56.80
2019-05-18T01:56:00.968Z,56.80
2019-05-18T01:58:05.892Z,56.80
2019-05-18T02:00:11.165Z,56.80
2019-05-18T02:02:15.947Z,56.70
2019-05-18T02:04:20.719Z,56.70
2019-05-18T02:06:25.397Z,57.20
2019-05-18T02:08:30.071Z,57.40
2019-05-18T02:10:34.778Z,56.80
2019-05-18T02:12:40.573Z,56.80
2019-05-18T02:14:45.329Z,56.90
2019-05-18T02:16:50.030Z,56.90
2019-05-18T02:18:54.705Z,57.00
2019-05-18T02:21:02.341Z,57.00
2019-05-18T02:23:07.110Z,57.00
2019-05-18T02:25:11.781Z,57.00
2019-05-18T02:27:16.445Z,57.10
2019-05-18T02:29:21.223Z,57.10
2019-05-18T02:31:26.033Z,57.10
2019-05-18T02:33:30.765Z,57.10
2019-05-18T02:35:35.460Z,57.10
2019-05-18T02:37:40.213Z,57.10
2019-05-18T02:39:44.960Z,57.10
2019-05-18T02:41:49.822Z,57.10
2019-05-18T02:43:54.589Z,56.50
2019-05-18T02:45:59.318Z,57.20
2019-05-18T02:48:04.144Z,57.20
2019-05-18T02:50:09.754Z,57.20
2019-05-18T02:52:14.507Z,57.70
2019-05-18T02:54:19.284Z,57.10
2019-05-18T02:56:23.951Z,57.10
2019-05-18T02:58:28.704Z,57.10
2019-05-18T03:00:33.482Z,57.20
2019-05-18T03:02:38.515Z,57.10
2019-05-18T03:04:43.279Z,57.20
2019-05-18T03:06:48.059Z,57.20
2019-05-18T03:08:52.802Z,57.20
2019-05-18T03:10:57.585Z,57.20
2019-05-18T03:13:02.377Z,57.20
2019-05-18T03:15:07.186Z,57.20
2019-05-18T03:17:11.932Z,57.30
2019-05-18T03:19:16.758Z,57.30
2019-05-18T03:21:21.626Z,57.30
2019-05-18T03:23:26.366Z,57.30
2019-05-18T03:25:31.143Z,57.30
2019-05-18T03:27:35.892Z,57.30
2019-05-18T03:29:40.628Z,56.60
2019-05-18T03:31:45.397Z,57.30
2019-05-18T03:33:50.147Z,57.20
2019-05-18T03:35:54.883Z,57.20
2019-05-18T03:37:59.898Z,57.20
2019-05-18T03:40:07.348Z,57.20
2019-05-18T03:42:12.079Z,57.30
2019-05-18T03:44:16.845Z,57.30
2019-05-18T03:46:24.004Z,57.40
2019-05-18T03:48:29.008Z,57.40
2019-05-18T03:50:33.779Z,57.40
2019-05-18T03:52:38.451Z,57.50
2019-05-18T03:54:43.203Z,57.40
2019-05-18T03:56:48.169Z,57.40
2019-05-18T03:58:52.895Z,57.40
2019-05-18T04:01:00.581Z,57.40
2019-05-18T04:03:05.313Z,57.50
2019-05-18T04:05:09.999Z,57.40
2019-05-18T04:07:14.763Z,57.30
2019-05-18T04:09:19.496Z,57.40
2019-05-18T04:11:24.272Z,57.40
2019-05-18T04:13:28.945Z,57.40
2019-05-18T04:15:33.725Z,57.40
2019-05-18T04:17:38.481Z,57.40
2019-05-18T04:19:46.794Z,57.40
2019-05-18T04:21:49.614Z,57.40
2019-05-18T04:23:54.280Z,57.50
2019-05-18T04:25:58.964Z,57.60
2019-05-18T04:28:03.852Z,57.60
2019-05-18T04:30:08.595Z,57.60
2019-05-18T04:32:13.295Z,57.70
2019-05-18T04:34:18.083Z,57.70
2019-05-18T04:36:22.820Z,57.70
2019-05-18T04:38:27.621Z,57.80
2019-05-18T04:40:32.381Z,57.80
2019-05-18T04:42:37.151Z,57.80
2019-05-18T04:44:41.886Z,57.80
2019-05-18T04:46:46.656Z,57.80
2019-05-18T04:48:51.409Z,57.70
2019-05-18T04:50:56.206Z,57.80
2019-05-18T04:53:00.988Z,57.80
2019-05-18T04:55:06.394Z,57.80
2019-05-18T04:57:11.142Z,57.80
2019-05-18T04:59:15.866Z,57.80
2019-05-18T05:01:20.626Z,57.90
2019-05-18T05:03:25.346Z,58.00
2019-05-18T05:05:30.149Z,58.10
2019-05-18T05:07:34.862Z,58.10
2019-05-18T05:09:39.607Z,58.20
2019-05-18T05:11:44.373Z,58.20
2019-05-18T05:13:49.062Z,58.20
2019-05-18T05:15:53.771Z,58.30
2019-05-18T05:17:58.515Z,58.20
2019-05-18T05:20:18.298Z,58.20
2019-05-18T05:22:11.336Z,58.20
2019-05-18T05:24:16.097Z,58.20
2019-05-18T05:26:20.847Z,58.30
2019-05-18T05:28:25.656Z,58.30
2019-05-18T05:30:30.354Z,58.40
2019-05-18T05:32:35.160Z,58.50
2019-05-18T05:34:39.908Z,58.60
2019-05-18T05:36:45.724Z,58.60
2019-05-18T05:38:51.803Z,58.70
2019-05-18T05:40:56.556Z,58.80
2019-05-18T05:43:01.451Z,58.80
2019-05-18T05:45:06.650Z,58.70
2019-05-18T05:47:11.396Z,58.70
2019-05-18T05:49:16.169Z,58.80
2019-05-18T05:51:21.017Z,58.80
2019-05-18T05:53:25.690Z,58.70
2019-05-18T05:55:30.432Z,58.80
2019-05-18T05:57:35.254Z,58.70
2019-05-18T05:59:39.991Z,58.80
2019-05-18T06:01:44.704Z,58.70
2019-05-18T06:03:49.542Z,58.50
2019-05-18T06:05:54.217Z,58.60
2019-05-18T06:07:59.000Z,58.50
2019-05-18T06:10:05.001Z,58.30
2019-05-18T06:12:09.690Z,58.30
2019-05-18T06:14:14.365Z,58.00
2019-05-18T06:16:19.115Z,58.00
2019-05-18T06:18:23.891Z,58.00
2019-05-18T06:20:28.562Z,58.00
2019-05-18T06:22:33.317Z,57.90
2019-05-18T06:24:38.161Z,57.80
2019-05-18T06:26:42.825Z,57.80
2019-05-18T06:28:47.673Z,57.80
2019-05-18T06:30:52.460Z,57.90
2019-05-18T06:32:57.128Z,57.70
2019-05-18T06:35:03.511Z,57.80
2019-05-18T06:37:08.295Z,57.90
2019-05-18T06:39:12.953Z,58.00
2019-05-18T06:41:17.619Z,58.10
2019-05-18T06:43:22.302Z,58.20
2019-05-18T06:45:27.377Z,58.30
2019-05-18T06:47:32.221Z,58.20
2019-05-18T06:49:36.911Z,58.10
2019-05-18T06:51:41.615Z,58.30
2019-05-18T06:53:46.391Z,58.20
2019-05-18T06:55:51.267Z,58.00
2019-05-18T06:57:57.154Z,58.20
2019-05-18T07:00:02.850Z,58.40
2019-05-18T07:02:07.829Z,58.40
2019-05-18T07:04:12.609Z,58.30
2019-05-18T07:06:17.442Z,58.30
2019-05-18T07:08:22.252Z,58.40
2019-05-18T07:10:27.022Z,58.50
2019-05-18T07:12:31.784Z,58.70
2019-05-18T07:14:36.682Z,58.50
2019-05-18T07:16:41.441Z,58.40
2019-05-18T07:18:46.135Z,58.20
2019-05-18T07:20:50.845Z,57.90
2019-05-18T07:22:55.578Z,57.70
2019-05-18T07:25:00.341Z,57.50
2019-05-18T07:27:05.149Z,57.40
2019-05-18T07:29:09.895Z,57.20
2019-05-18T07:31:14.659Z,57.10
2019-05-18T07:33:19.443Z,56.80
2019-05-18T07:35:24.227Z,56.70
2019-05-18T07:37:29.053Z,56.60
2019-05-18T07:39:36.063Z,56.50
2019-05-18T07:41:46.755Z,56.30
2019-05-18T07:43:46.577Z,56.30
2019-05-18T07:45:51.338Z,56.20
2019-05-18T07:47:56.057Z,56.10
2019-05-18T07:50:00.831Z,56.00
2019-05-18T07:52:05.640Z,56.00
2019-05-18T07:54:10.442Z,55.90
2019-05-18T07:56:15.194Z,55.70
2019-05-18T07:58:19.885Z,55.70
2019-05-18T08:00:24.592Z,55.70
2019-05-18T08:02:29.287Z,55.90
2019-05-18T08:04:33.966Z,56.00
2019-05-18T08:06:38.763Z,56.80
2019-05-18T08:08:46.590Z,56.20
2019-05-18T08:10:51.306Z,56.40
2019-05-18T08:12:56.067Z,56.50
2019-05-18T08:15:00.786Z,57.30
2019-05-18T08:17:07.986Z,56.50
2019-05-18T08:19:12.807Z,56.40
2019-05-18T08:21:17.526Z,56.30
2019-05-18T08:23:22.309Z,56.00
2019-05-18T08:25:27.088Z,56.10
2019-05-18T08:27:31.790Z,56.00
2019-05-18T08:29:36.551Z,55.80
2019-05-18T08:31:41.380Z,56.00
2019-05-18T08:33:46.132Z,55.90
2019-05-18T08:35:50.903Z,56.00
2019-05-18T08:37:55.688Z,55.90
2019-05-18T08:40:00.459Z,55.70
2019-05-18T08:42:05.216Z,55.60
2019-05-18T08:44:10.011Z,55.40
2019-05-18T08:46:14.785Z,55.60
2019-05-18T08:48:19.629Z,55.30
2019-05-18T08:50:24.420Z,55.20
2019-05-18T08:52:30.162Z,55.00
2019-05-18T08:54:34.932Z,55.00
2019-05-18T08:56:39.743Z,54.80
2019-05-18T08:58:44.475Z,54.80
2019-05-18T09:00:49.301Z,54.70
2019-05-18T09:02:54.090Z,54.80
2019-05-18T09:04:58.951Z,55.00
2019-05-18T09:07:03.699Z,54.90
2019-05-18T09:09:08.385Z,55.50
2019-05-18T09:11:13.185Z,54.70
2019-05-18T09:13:18.019Z,54.40
2019-05-18T09:15:22.784Z,54.10
2019-05-18T09:17:27.605Z,54.00
2019-05-18T09:19:32.281Z,53.90
2019-05-18T09:21:37.038Z,53.90
2019-05-18T09:23:41.753Z,54.20
2019-05-18T09:25:46.903Z,53.90
2019-05-18T09:27:51.588Z,54.20
2019-05-18T09:29:56.557Z,54.00
2019-05-18T09:32:01.229Z,53.60
2019-05-18T09:34:05.986Z,53.70
2019-05-18T09:36:10.768Z,53.70
2019-05-18T09:38:15.548Z,53.60
2019-05-18T09:40:20.398Z,53.60
2019-05-18T09:42:25.153Z,53.50
2019-05-18T09:44:29.877Z,53.20
2019-05-18T09:46:34.641Z,53.70
2019-05-18T09:48:41.081Z,53.00
2019-05-18T09:50:45.844Z,52.90
2019-05-18T09:52:50.540Z,52.80
2019-05-18T09:54:55.339Z,52.70
2019-05-18T09:57:00.129Z,52.40
2019-05-18T09:59:04.892Z,52.40
2019-05-18T10:01:10.736Z,52.20
2019-05-18T10:03:15.518Z,52.10
2019-05-18T10:05:20.506Z,51.70
2019-05-18T10:07:25.366Z,51.70
2019-05-18T10:09:38.840Z,51.50
2019-05-18T10:11:38.595Z,51.20
2019-05-18T10:14:02.386Z,51.00
2019-05-18T10:16:08.811Z,51.00
2019-05-18T10:18:13.568Z,50.80
2019-05-18T10:20:18.370Z,50.90
2019-05-18T10:22:23.146Z,51.00
2019-05-18T10:24:27.913Z,51.30
2019-05-18T10:26:32.695Z,51.20
2019-05-18T10:28:37.439Z,52.10
2019-05-18T10:30:42.197Z,51.40
2019-05-18T10:32:46.970Z,51.40
2019-05-18T10:34:51.659Z,51.30
2019-05-18T10:36:56.442Z,51.30
2019-05-18T10:39:01.195Z,51.20
2019-05-18T10:41:07.139Z,51.10
2019-05-18T10:43:11.953Z,51.00
2019-05-18T10:45:16.715Z,50.90
2019-05-18T10:47:21.547Z,50.80
2019-05-18T10:49:26.273Z,50.60
2019-05-18T10:51:31.172Z,50.30
2019-05-18T10:53:35.946Z,50.40
2019-05-18T10:55:40.762Z,50.40
2019-05-18T10:57:48.512Z,50.10
2019-05-18T10:59:53.230Z,50.00
2019-05-18T11:01:58.070Z,49.90
2019-05-18T11:04:02.839Z,49.60
2019-05-18T11:06:07.608Z,49.30
2019-05-18T11:08:12.375Z,49.30
2019-05-18T11:10:17.527Z,49.20
2019-05-18T11:12:22.324Z,49.00
2019-05-18T11:14:28.053Z,49.00
2019-05-18T11:16:32.810Z,49.10
2019-05-18T11:18:37.558Z,49.20
2019-05-18T11:20:42.311Z,49.30
2019-05-18T11:22:47.089Z,49.50
2019-05-18T11:24:52.703Z,49.50
2019-05-18T11:26:57.414Z,49.60
2019-05-18T11:29:02.190Z,49.60
2019-05-18T11:31:06.956Z,49.60
2019-05-18T11:33:12.136Z,49.50
2019-05-18T11:35:18.161Z,49.30
2019-05-18T11:37:22.946Z,49.40
2019-05-18T11:39:27.782Z,49.60
2019-05-18T11:41:32.547Z,49.30
2019-05-18T11:43:37.395Z,49.20
2019-05-18T11:45:42.350Z,48.90
2019-05-18T11:47:47.090Z,48.80
2019-05-18T11:49:51.809Z,48.80
2019-05-18T11:51:56.547Z,48.60
2019-05-18T11:54:01.245Z,48.60
2019-05-18T11:56:06.013Z,48.30
2019-05-18T11:58:12.305Z,48.00
2019-05-18T12:00:17.046Z,48.10
2019-05-18T12:02:21.752Z,47.90
2019-05-18T12:04:26.446Z,47.70
2019-05-18T12:06:31.133Z,47.30
2019-05-18T12:08:37.550Z,47.00
2019-05-18T12:10:42.312Z,47.80
2019-05-18T12:12:47.121Z,47.00
2019-05-18T12:14:51.867Z,47.10
2019-05-18T12:16:56.552Z,47.10
2019-05-18T12:19:01.360Z,47.10
2019-05-18T12:21:06.122Z,46.90
2019-05-18T12:23:10.854Z,46.90
2019-05-18T12:25:15.608Z,46.80
2019-05-18T12:27:20.356Z,47.00
2019-05-18T12:29:25.177Z,47.00
2019-05-18T12:31:29.944Z,46.90
2019-05-18T12:33:34.650Z,47.00
2019-05-18T12:35:39.414Z,46.60
2019-05-18T12:37:44.226Z,46.70
2019-05-18T12:39:48.969Z,46.70
2019-05-18T12:41:53.832Z,46.50
2019-05-18T12:43:59.560Z,46.40
2019-05-18T12:46:04.583Z,46.40
2019-05-18T12:48:09.366Z,46.00
2019-05-18T12:50:15.783Z,45.90
2019-05-18T12:52:20.552Z,45.90
2019-05-18T12:54:30.920Z,46.10
2019-05-18T12:56:31.654Z,45.80
2019-05-18T12:58:37.785Z,45.60
2019-05-18T13:00:43.542Z,45.70
2019-05-18T13:02:48.217Z,45.60
2019-05-18T13:04:52.959Z,45.50
2019-05-18T13:06:57.662Z,45.30
2019-05-18T13:09:02.418Z,45.40
2019-05-18T13:11:07.822Z,45.40
2019-05-18T13:13:12.549Z,45.30
2019-05-18T13:15:17.300Z,45.40
2019-05-18T13:17:22.040Z,45.30
2019-05-18T13:19:26.816Z,45.30
2019-05-18T13:21:31.573Z,45.50
2019-05-18T13:23:37.951Z,45.20
2019-05-18T13:25:42.674Z,45.00
2019-05-18T13:27:47.366Z,44.90
2019-05-18T13:29:52.038Z,44.80
2019-05-18T13:31:56.775Z,44.70
2019-05-18T13:34:01.487Z,44.60
2019-05-18T13:36:06.178Z,44.40
2019-05-18T13:38:11.042Z,44.20
2019-05-18T13:40:15.840Z,44.30
2019-05-18T13:42:20.584Z,44.40
2019-05-18T13:44:25.323Z,44.30
2019-05-18T13:46:30.097Z,44.40
2019-05-18T13:48:34.757Z,44.50
2019-05-18T13:50:39.436Z,44.70
2019-05-18T13:52:44.219Z,44.70
2019-05-18T13:55:02.980Z,44.50
2019-05-18T13:56:55.522Z,44.30
2019-05-18T13:59:00.320Z,44.30
2019-05-18T14:01:05.063Z,44.40
2019-05-18T14:03:09.808Z,44.40
2019-05-18T14:05:15.457Z,44.60
2019-05-18T14:07:20.228Z,44.30
2019-05-18T14:09:26.101Z,44.50
2019-05-18T14:11:30.839Z,44.30
2019-05-18T14:13:37.250Z,44.10
2019-05-18T14:15:42.085Z,44.10
2019-05-18T14:17:46.837Z,44.30
2019-05-18T14:19:51.539Z,44.30
2019-05-18T14:21:56.310Z,44.40
2019-05-18T14:24:01.083Z,44.60
2019-05-18T14:26:05.856Z,44.20
2019-05-18T14:28:10.599Z,43.90
2019-05-18T14:30:15.355Z,43.90
2019-05-18T14:32:20.033Z,43.90
2019-05-18T14:34:24.771Z,43.90
2019-05-18T14:36:29.450Z,43.70
2019-05-18T14:38:34.277Z,43.60
2019-05-18T14:40:39.198Z,43.40
2019-05-18T14:42:43.954Z,43.40
2019-05-18T14:44:48.830Z,43.40
2019-05-18T14:46:53.635Z,43.40
2019-05-18T14:48:58.366Z,43.20
2019-05-18T14:51:03.103Z,43.90
2019-05-18T14:53:07.850Z,43.40
2019-05-18T14:55:12.677Z,43.40
2019-05-18T14:57:17.377Z,43.10
2019-05-18T14:59:22.133Z,43.10
2019-05-18T15:01:26.889Z,43.10
2019-05-18T15:03:31.680Z,42.70
2019-05-18T15:05:38.642Z,42.70
2019-05-18T15:07:42.832Z,42.60
2019-05-18T15:09:47.543Z,42.70
2019-05-18T15:11:52.294Z,42.50
2019-05-18T15:13:57.032Z,42.30
2019-05-18T15:16:01.845Z,42.60
2019-05-18T15:18:06.586Z,42.70
2019-05-18T15:20:11.372Z,42.90
2019-05-18T15:22:16.136Z,42.90
2019-05-18T15:24:20.885Z,43.00
2019-05-18T15:26:26.639Z,43.10
2019-05-18T15:28:31.371Z,42.80
2019-05-18T15:30:36.064Z,43.40
2019-05-18T15:32:40.862Z,42.40
2019-05-18T15:34:45.638Z,42.10
2019-05-18T15:36:50.388Z,42.10
2019-05-18T15:38:55.160Z,41.90
2019-05-18T15:40:59.906Z,42.00
2019-05-18T15:43:04.717Z,41.80
2019-05-18T15:45:10.167Z,41.60
2019-05-18T15:47:14.982Z,41.70
2019-05-18T15:49:19.724Z,42.20
2019-05-18T15:51:24.557Z,41.50
2019-05-18T15:53:30.927Z,41.70
2019-05-18T15:55:35.681Z,41.50
2019-05-18T15:57:42.108Z,41.40
2019-05-18T15:59:46.881Z,41.20
2019-05-18T16:01:56.716Z,41.20
2019-05-18T16:04:01.496Z,41.10
2019-05-18T16:06:06.244Z,41.30
2019-05-18T16:08:10.982Z,41.40
2019-05-18T16:10:15.854Z,41.60
2019-05-18T16:12:20.678Z,41.60
2019-05-18T16:14:25.428Z,41.60
2019-05-18T16:16:30.192Z,41.50
2019-05-18T16:18:34.853Z,41.40
2019-05-18T16:20:39.773Z,41.20
2019-05-18T16:22:44.731Z,40.90
2019-05-18T16:24:51.226Z,40.90
2019-05-18T16:26:55.999Z,40.80
2019-05-18T16:29:04.306Z,40.90
2019-05-18T16:31:10.314Z,40.90
2019-05-18T16:33:15.033Z,40.80
2019-05-18T16:35:19.754Z,40.90
2019-05-18T16:37:24.499Z,41.00
2019-05-18T16:39:29.194Z,40.90
2019-05-18T16:41:33.997Z,41.10
2019-05-18T16:43:38.656Z,41.10
2019-05-18T16:45:43.361Z,41.20
2019-05-18T16:47:48.050Z,41.00
2019-05-18T16:49:52.771Z,41.10
2019-05-18T16:51:57.482Z,41.00
2019-05-18T16:54:02.278Z,40.70
2019-05-18T16:56:07.014Z,40.80
2019-05-18T16:58:11.788Z,40.70
2019-05-18T17:00:16.740Z,41.40
2019-05-18T17:02:31.081Z,40.90
2019-05-18T17:04:27.936Z,41.00
2019-05-18T17:06:32.695Z,41.20
2019-05-18T17:08:37.442Z,41.10
2019-05-18T17:10:42.211Z,40.90
2019-05-18T17:12:46.969Z,40.80
2019-05-18T17:14:51.745Z,40.30
2019-05-18T17:16:56.530Z,40.30
2019-05-18T17:19:01.208Z,40.40
2019-05-18T17:21:05.953Z,40.60
2019-05-18T17:23:10.761Z,40.70
2019-05-18T17:25:15.719Z,40.60
2019-05-18T17:27:20.460Z,40.80
2019-05-18T17:29:25.226Z,40.90
2019-05-18T17:31:29.968Z,41.10
2019-05-18T17:33:34.789Z,41.20
2019-05-18T17:35:39.657Z,41.40
2019-05-18T17:37:44.403Z,41.70
2019-05-18T17:39:49.142Z,41.70
2019-05-18T17:41:53.926Z,41.80
2019-05-18T17:43:58.672Z,41.70
2019-05-18T17:46:03.426Z,41.80
2019-05-18T17:48:08.208Z,41.70
2019-05-18T17:50:12.966Z,41.90
2019-05-18T17:52:17.733Z,42.10
2019-05-18T17:54:22.476Z,42.50
2019-05-18T17:56:27.176Z,42.60
2019-05-18T17:58:32.041Z,43.00
2019-05-18T18:00:36.786Z,43.40
2019-05-18T18:02:43.253Z,43.50
2019-05-18T18:04:48.024Z,43.90
2019-05-18T18:06:52.840Z,44.00
2019-05-18T18:08:57.878Z,44.30
2019-05-18T18:11:02.754Z,45.00
2019-05-18T18:13:09.489Z,44.20
2019-05-18T18:15:15.012Z,44.50
2019-05-18T18:17:19.837Z,44.40
2019-05-18T18:19:24.628Z,44.60
2019-05-18T18:21:29.392Z,44.60
2019-05-18T18:23:34.228Z,44.60
2019-05-18T18:25:39.011Z,44.70
2019-05-18T18:27:43.757Z,44.70
2019-05-18T18:29:48.439Z,44.80
2019-05-18T18:31:53.360Z,44.90
2019-05-18T18:33:58.125Z,45.00
2019-05-18T18:36:02.842Z,45.80
2019-05-18T18:38:07.628Z,45.10
2019-05-18T18:40:12.521Z,45.10
2019-05-18T18:42:18.361Z,45.60
2019-05-18T18:44:23.150Z,44.80
2019-05-18T18:46:27.891Z,44.80
2019-05-18T18:48:32.659Z,44.90
2019-05-18T18:50:37.422Z,45.00
2019-05-18T18:52:42.325Z,45.20
2019-05-18T18:54:47.022Z,45.00
2019-05-18T18:56:51.783Z,44.80
2019-05-18T18:58:56.462Z,45.00
2019-05-18T19:01:01.249Z,45.10
2019-05-18T19:03:06.047Z,44.80
2019-05-18T19:05:10.789Z,44.80
2019-05-18T19:07:15.633Z,45.30
2019-05-18T19:09:20.327Z,44.40
2019-05-18T19:11:25.085Z,44.60
2019-05-18T19:13:29.853Z,44.80
2019-05-18T19:15:34.649Z,45.00
2019-05-18T19:17:39.408Z,45.40
2019-05-18T19:19:56.432Z,45.40
2019-05-18T19:22:01.173Z,45.50
2019-05-18T19:24:05.951Z,45.30
2019-05-18T19:26:10.814Z,45.30
2019-05-18T19:28:15.551Z,45.20
2019-05-18T19:30:20.232Z,45.30
2019-05-18T19:32:24.922Z,45.30
2019-05-18T19:34:29.717Z,45.20
2019-05-18T19:36:36.173Z,45.10
2019-05-18T19:38:40.919Z,45.20
2019-05-18T19:40:45.881Z,45.20
2019-05-18T19:42:50.625Z,45.20
2019-05-18T19:44:55.366Z,45.40
2019-05-18T19:47:00.162Z,45.40
2019-05-18T19:49:04.980Z,45.40
2019-05-18T19:51:09.755Z,45.40
2019-05-18T19:53:14.525Z,45.30
2019-05-18T19:55:31.720Z,45.40
2019-05-18T19:57:36.540Z,45.50
2019-05-18T19:59:42.398Z,45.60
2019-05-18T20:01:47.153Z,45.70
2019-05-18T20:03:51.930Z,45.90
2019-05-18T20:05:56.712Z,45.90
2019-05-18T20:08:01.445Z,45.90
2019-05-18T20:10:08.529Z,46.10
2019-05-18T20:12:13.285Z,46.00
2019-05-18T20:14:17.969Z,46.00
2019-05-18T20:16:23.633Z,46.10
2019-05-18T20:18:28.427Z,46.20
2019-05-18T20:20:33.181Z,46.20
2019-05-18T20:22:38.507Z,46.30
2019-05-18T20:24:43.449Z,46.30
2019-05-18T20:26:48.188Z,46.30
2019-05-18T20:28:52.880Z,46.40
2019-05-18T20:30:57.676Z,46.40
2019-05-18T20:33:02.506Z,46.50
2019-05-18T20:35:07.537Z,47.10
2019-05-18T20:37:12.329Z,46.60
2019-05-18T20:39:17.074Z,46.70
2019-05-18T20:41:21.849Z,46.80
2019-05-18T20:43:26.899Z,46.70
2019-05-18T20:45:31.768Z,46.80
2019-05-18T20:47:36.581Z,46.90
2019-05-18T20:49:41.422Z,46.90
2019-05-18T20:51:46.201Z,46.90
2019-05-18T20:53:50.973Z,46.90
2019-05-18T20:55:56.849Z,46.90
2019-05-18T20:58:04.349Z,46.70
2019-05-18T21:00:09.210Z,46.70
2019-05-18T21:02:16.217Z,46.70
2019-05-18T21:04:21.044Z,46.90
2019-05-18T21:06:25.846Z,46.60
2019-05-18T21:08:30.598Z,46.60
2019-05-18T21:10:35.433Z,46.70
2019-05-18T21:12:40.227Z,46.80
2019-05-18T21:14:45.007Z,46.80
2019-05-18T21:16:49.746Z,46.90
2019-05-18T21:18:54.480Z,46.80
2019-05-18T21:20:59.250Z,46.90
2019-05-18T21:23:04.017Z,47.00
2019-05-18T21:25:08.829Z,47.10
2019-05-18T21:27:13.589Z,47.10
2019-05-18T21:29:18.332Z,47.20
2019-05-18T21:31:23.046Z,47.10
2019-05-18T21:33:27.840Z,47.20
2019-05-18T21:35:33.161Z,47.30
2019-05-18T21:37:38.506Z,47.50
2019-05-18T21:39:43.277Z,47.60
2019-05-18T21:41:48.028Z,47.80
2019-05-18T21:43:52.772Z,47.80
2019-05-18T21:45:57.540Z,47.90
2019-05-18T21:48:02.353Z,48.00
2019-05-18T21:50:07.347Z,48.20
2019-05-18T21:52:12.119Z,48.30
2019-05-18T21:54:16.810Z,48.30
2019-05-18T21:56:21.513Z,48.30
2019-05-18T21:58:26.279Z,48.30
2019-05-18T22:00:32.505Z,48.30
2019-05-18T22:02:38.858Z,48.20
2019-05-18T22:04:43.698Z,48.20
2019-05-18T22:06:48.524Z,48.10
2019-05-18T22:08:53.329Z,48.20
2019-05-18T22:10:58.043Z,48.20
2019-05-18T22:13:02.867Z,48.20
2019-05-18T22:15:07.621Z,48.20
2019-05-18T22:17:12.475Z,48.20
2019-05-18T22:19:17.274Z,48.20
2019-05-18T22:21:22.040Z,48.30
2019-05-18T22:23:26.813Z,48.40
2019-05-18T22:25:32.088Z,48.50
2019-05-18T22:27:36.863Z,48.60
2019-05-18T22:29:41.750Z,48.60
2019-05-18T22:31:47.876Z,48.60
2019-05-18T22:33:52.688Z,48.60
2019-05-18T22:35:57.432Z,48.60
2019-05-18T22:38:02.224Z,48.60
2019-05-18T22:40:06.952Z,48.80
2019-05-18T22:42:11.866Z,48.80
2019-05-18T22:44:16.614Z,48.70
2019-05-18T22:46:21.469Z,48.80
2019-05-18T22:48:40.404Z,48.80
2019-05-18T22:50:32.633Z,48.80
2019-05-18T22:52:37.765Z,48.90
2019-05-18T22:54:42.465Z,49.10
2019-05-18T22:56:47.220Z,49.10
2019-05-18T22:58:51.922Z,49.20
2019-05-18T23:00:56.677Z,49.30
2019-05-18T23:03:01.424Z,49.40
2019-05-18T23:05:06.185Z,49.50
2019-05-18T23:07:11.084Z,49.50
2019-05-18T23:09:15.857Z,49.60
2019-05-18T23:11:20.558Z,49.80
2019-05-18T23:13:25.339Z,49.80
2019-05-18T23:15:30.152Z,49.90
2019-05-18T23:17:34.928Z,49.90
2019-05-18T23:19:39.747Z,50.00
2019-05-18T23:21:44.517Z,50.00
2019-05-18T23:23:49.943Z,50.00
2019-05-18T23:25:54.705Z,50.00
2019-05-18T23:27:59.408Z,50.00
2019-05-18T23:30:06.014Z,50.10
2019-05-18T23:32:10.815Z,50.00
2019-05-18T23:34:15.566Z,50.10
2019-05-18T23:36:20.334Z,50.00
2019-05-18T23:38:25.048Z,49.80
2019-05-18T23:40:29.807Z,49.70
2019-05-18T23:42:34.607Z,49.80
2019-05-18T23:44:39.307Z,49.80
2019-05-18T23:46:44.080Z,49.80
2019-05-18T23:48:48.861Z,49.90
2019-05-18T23:50:53.634Z,50.00
2019-05-18T23:52:58.381Z,50.00
2019-05-18T23:55:03.644Z,50.10
2019-05-18T23:57:08.338Z,50.00
2019-05-18T23:59:13.102Z,50.00
